WEATHER DATA

YESTERDAY
Time Temp. Dewp. Hum. Wind dir Wind speed Wind gust Bar. 1h Prec. 24h Prec.
00:03 -3.1 -5 85 341 0.8 1.1 1025.8 0.0000 0.0000
00:13 -3.2 -5.1 85 315 0.3 0.8 1025.7 0.0000 0.0000
00:23 -3.3 -5.2 85 315 0.3 0.8 1025.8 0.0000 0.0000
00:33 -3.4 -5.3 85 327 0.3 1.1 1025.8 0.0000 0.0000
00:43 -3.4 -5.3 85 335 0.3 1.1 1025.8 0.0000 0.0000
00:53 -3.5 -5.3 86 329 0.3 1.1 1025.8 0.0000 0.0000
01:04 -3.6 -5.4 86 320 0.3 0.8 1025.8 0.0000 0.0000
01:13 -3.7 -5.5 86 340 0.8 1.1 1025.8 0.0000 0.0000
01:23 -3.8 -5.6 86 335 0.3 1.1 1025.7 0.0000 0.0000
01:34 -3.9 -5.7 86 315 0.3 1.1 1025.7 0.0000 0.0000
01:44 -4 -5.8 86 341 0.3 1.1 1025.8 0.0000 0.0000
01:54 -4 -5.6 87 341 0.8 1.1 1025.6 0.0000 0.0000
02:03 -4.1 -5.7 87 332 0.3 1.1 1025.6 0.0000 0.0000
02:14 -4.2 -5.8 87 345 0.3 1.1 1025.6 0.0000 0.0000
02:24 -4.3 -5.9 87 341 0.3 1.1 1025.5 0.0000 0.0000
02:34 -4.3 -5.9 87 341 0.3 1.1 1025.5 0.0000 0.0000
02:44 -4.4 -6 87 327 0.3 1.1 1025.2 0.0000 0.0000
02:54 -4.4 -6 87 344 0.8 1.1 1025.4 0.0000 0.0000
03:04 -4.5 -6.1 87 338 0.3 1.1 1025.2 0.0000 0.0000
03:14 -4.6 -6.1 88 342 0.8 1.1 1025.1 0.0000 0.0000
03:25 -4.6 -6.1 88 338 0.3 1.1 1025 0.0000 0.0000
03:34 -4.7 -6.2 88 342 0.3 1.1 1024.9 0.0000 0.0000
03:44 -4.7 -6.2 88 333 0.3 1.4 1024.9 0.0000 0.0000
03:55 -4.8 -6.3 88 344 0.3 1.1 1024.8 0.0000 0.0000
04:05 -4.8 -6.3 88 338 0.3 0.8 1024.7 0.0000 0.0000
04:14 -4.9 -6.3 89 315 0.3 0.8 1024.6 0.0000 0.0000
04:24 -4.9 -6.3 89 330 0.3 1.1 1024.6 0.0000 0.0000
04:35 -4.9 -6.3 89 315 0.3 0.8 1024.6 0.0000 0.0000
04:45 -5 -6.4 89 318 0.3 1.1 1024.6 0.0000 0.0000
04:55 -5 -6.4 89 333 0.8 1.4 1024.6 0.0000 0.0000
05:05 -5.1 -6.5 89 322 0.3 1.1 1024.7 0.0000 0.0000
05:15 -5.1 -6.3 90 318 0.3 1.1 1024.7 0.0000 0.0000
05:25 -5.1 -6.3 90 336 0.8 1.4 1024.5 0.0000 0.0000
05:35 -5.1 -6.3 90 332 0.8 1.4 1024.5 0.0000 0.0000
05:45 -5.2 -6.4 90 333 0.3 1.1 1024.4 0.0000 0.0000
06:00 -5.2 -6.4 90 315 0.3 1.1 1024.3 0.0000 0.0000
06:10 -5.2 -6.3 91 318 0.3 1.4 1024.3 0.0000 0.0000
06:21 -5.2 -6.3 91 311 0.3 1.1 1024.4 0.0000 0.0000
06:30 -5.3 -6.4 91 338 0.8 1.4 1024.3 0.0000 0.0000
06:40 -5.3 -6.4 91 325 0.3 1.1 1024.2 0.0000 0.0000
06:51 -5.4 -6.5 91 339 0.8 1.1 1024.3 0.0000 0.0000
07:01 -5.4 -6.5 91 331 0.8 1.4 1024.2 0.0000 0.0000
07:11 -5.4 -6.5 91 332 0.8 1.1 1024.3 0.0000 0.0000
07:20 -5.4 -6.5 91 325 0.3 1.1 1024.3 0.0000 0.0000
07:31 -5.4 -6.5 91 322 0.3 1.1 1024.4 0.0000 0.0000
07:41 -5.4 -6.4 92 315 0.3 1.1 1024.5 0.0000 0.0000
07:51 -5.4 -6.4 92 315 0.3 1.1 1024.5 0.0000 0.0000
08:01 -5.3 -6.3 92 304 0.3 1.1 1024.5 0.0000 0.0000
08:11 -5.2 -6 93 315 0.3 1.1 1024.6 0.0000 0.0000
08:21 -5 -5.8 93 322 0.3 1.4 1024.6 0.0000 0.0000
08:31 -4.9 -5.7 93 310 0.3 0.8 1024.7 0.0000 0.0000
08:42 -4.8 -5.6 93 270 0.3 0.8 1024.6 0.0000 0.0000
08:51 -4.5 -5.2 94 270 0.3 0.8 1024.5 0.0000 0.0000
09:01 -4.1 -4.7 95 305 0.3 0.8 1024.4 0.0000 0.0000
09:11 -3.4 -3.9 96 270 0.3 0.8 1024.4 0.0000 0.0000
09:22 -2.6 -3 97 270 0.3 1.1 1024.2 0.0000 0.0000
09:31 -1.8 -2.3 96 270 0.3 1.1 1024.2 0.0000 0.0000
09:41 -0.1 -0.6 96 270 0.3 0.8 1024.1 0.0000 0.0000
09:52 1.8 0.3 90 306 0.3 1.4 1024.2 0.0000 0.0000
10:12 5.3 0.9 73 220 0.3 1.1 1024.2 0.0000 0.0000
10:22 6.6 1.3 69 270 0.3 1.4 1024.1 0.0000 0.0000
10:32 8 0.9 61 0.3 1.1 1024.2 0.0000 0.0000
10:42 9.2 1.8 60 90 0.3 1.4 1024.3 0.0000 0.0000
10:52 10.4 2.5 58 180 0.3 1.1 1024.1 0.0000 0.0000
11:03 11.2 2.2 54 225 0.3 1.4 1024.3 0.0000 0.0000
11:12 11.9 1.5 49 315 0.3 2.2 1024.1 0.0000 0.0000
11:22 12.4 1.4 47 146 0.8 2.8 1024 0.0000 0.0000
11:32 12.6 1.3 46 135 0.3 1.9 1024 0.0000 0.0000
11:43 12.5 0.9 45 135 0.8 1.9 1023.9 0.0000 0.0000
11:52 12.7 1.1 45 149 0.8 1.9 1023.6 0.0000 0.0000
12:02 12.7 0.5 43 146 0.8 2.2 1023.5 0.0000 0.0000
12:13 12.9 1 44 141 0.8 2.8 1023.4 0.0000 0.0000
12:23 13.2 0.9 43 315 0.3 1.4 1023.2 0.0000 0.0000
12:33 13.3 1 43 270 0.3 1.4 1023.1 0.0000 0.0000
12:43 13.5 1.5 44 153 0.3 1.4 1023 0.0000 0.0000
12:53 13.8 1.8 44 203 0.3 2.2 1023 0.0000 0.0000
13:03 14.1 2 44 135 0.3 0.8 1022.9 0.0000 0.0000
13:13 14 1.6 43 135 0.3 1.4 1022.7 0.0000 0.0000
13:23 14.3 1.9 43 183 0.3 1.4 1022.6 0.0000 0.0000
13:33 14.6 1.5 41 180 0.3 1.4 1022.4 0.0000 0.0000
13:43 14.5 2.1 43 90 0.3 1.1 1022.1 0.0000 0.0000
13:53 14.8 1.7 41 225 0.3 1.1 1022 0.0000 0.0000
14:04 14.6 1.8 42 194 0.3 2.2 1021.7 0.0000 0.0000
14:13 14.6 1.5 41 338 0.3 1.4 1021.6 0.0000 0.0000
14:23 14.6 2.5 44 315 0.3 1.1 1021.5 0.0000 0.0000
14:34 14.8 2.4 43 315 0.3 1.1 1021.4 0.0000 0.0000
14:44 14.9 2.1 42 270 0.3 0.8 1021.4 0.0000 0.0000
14:53 14.7 1.9 42 180 0.3 1.1 1021.2 0.0000 0.0000
15:03 14.7 1.6 41 210 0.3 1.4 1021.2 0.0000 0.0000
15:14 14.6 1.2 40 168 0.3 1.4 1021.2 0.0000 0.0000
15:24 14.3 1.2 41 270 0.3 1.4 1021.1 0.0000 0.0000
15:34 14 1 41 135 0.3 1.9 1021 0.0000 0.0000
15:44 13.8 1.4 43 216 0.3 1.4 1021.1 0.0000 0.0000
15:54 13.4 1.1 43 315 0.3 1.1 1020.9 0.0000 0.0000
16:04 12.9 1 44 315 0.3 1.1 1021 0.0000 0.0000
16:14 12.3 0.7 45 0.3 1.1 1020.9 0.0000 0.0000
16:24 11.8 0.6 46 210 0.3 0.8 1020.5 0.0000 0.0000
16:34 11.2 0.3 47 206 0.3 0.8 1020.4 0.0000 0.0000
16:44 10.5 0.2 49 333 0.3 1.1 1020.4 0.0000 0.0000
16:55 9.8 0.2 51 348 0.3 0.8 1020.3 0.0000 0.0000
17:05 9.1 0 53 348 0.3 0.8 1020.3 0.0000 0.0000
17:14 8.3 -0.4 54 348 0.3 1.1 1020.3 0.0000 0.0000
17:24 7.4 -0.7 56 345 0.3 0.8 1020.3 0.0000 0.0000
17:35 6.6 -0.9 58 339 0.3 1.1 1020.3 0.0000 0.0000
17:45 5.8 -1.4 59 350 0.3 0.8 1020.4 0.0000 0.0000
17:54 5.1 -1.6 61 341 0.3 0.8 1020.4 0.0000 0.0000
18:05 4.4 -1.8 63 343 0.3 1.1 1020.5 0.0000 0.0000
18:15 3.8 -2.1 64 340 0.3 1.1 1020.5 0.0000 0.0000
18:25 3.2 -2.4 65 338 0.3 1.1 1020.5 0.0000 0.0000
18:35 2.7 -2.7 66 324 0.3 1.1 1020.6 0.0000 0.0000
18:45 2.2 -2.7 68 331 0.3 1.1 1020.4 0.0000 0.0000
18:57 1.7 -3 69 310 0.3 0.8 1020.4 0.0000 0.0000
19:07 1.3 -3.2 70 331 0.3 1.1 1020.5 0.0000 0.0000
19:17 1 -3.4 70 319 0.3 1.1 1020.4 0.0000 0.0000
19:27 0.7 -3.5 71 336 0.3 1.1 1020.3 0.0000 0.0000
19:37 0.4 -3.6 72 308 0.3 0.8 1020.3 0.0000 0.0000
19:47 0.1 -3.7 73 341 0.3 0.8 1020.3 0.0000 0.0000
19:57 -0.1 -3.9 73 341 0.3 1.1 1020.3 0.0000 0.0000
20:08 -0.4 -4 74 341 0.3 1.1 1020.3 0.0000 0.0000
20:17 -0.6 -4.2 74 341 0.3 1.1 1020.4 0.0000 0.0000
20:27 -0.7 -4.1 75 341 0.8 1.1 1020.2 0.0000 0.0000
20:38 -0.9 -4.3 75 334 0.3 0.8 1020.2 0.0000 0.0000
20:48 -1.1 -4.4 76 333 0.8 1.1 1020.2 0.0000 0.0000
20:57 -1.3 -4.6 76 309 0.3 0.8 1020.2 0.0000 0.0000
21:07 -1.5 -4.6 77 340 0.3 1.1 1020.3 0.0000 0.0000
21:18 -1.6 -4.7 77 319 0.3 0.8 1020.1 0.0000 0.0000
21:28 -1.8 -4.9 77 339 0.8 1.4 1020.2 0.0000 0.0000
21:38 -2 -4.9 78 334 0.3 1.1 1020.1 0.0000 0.0000
21:48 -2 -4.9 78 334 0.3 1.1 1020.1 0.0000 0.0000
21:58 -2.2 -5 79 342 0.3 1.1 1020 0.0000 0.0000
22:08 -2.3 -5.1 79 330 0.3 1.1 1020 0.0000 0.0000
22:18 -2.5 -5.1 80 327 0.3 1.1 1020 0.0000 0.0000
22:28 -2.6 -5.2 80 338 0.3 1.1 1019.9 0.0000 0.0000
22:38 -2.7 -5.3 80 336 0.3 0.8 1019.9 0.0000 0.0000
22:48 -2.8 -5.3 81 340 0.3 1.1 1019.8 0.0000 0.0000
22:59 -2.9 -5.4 81 343 0.8 1.1 1019.8 0.0000 0.0000
23:09 -3 -5.5 81 327 0.3 0.8 1019.8 0.0000 0.0000
23:18 -3.1 -5.6 81 340 0.3 1.1 1019.9 0.0000 0.0000
23:28 -3.2 -5.7 81 342 0.3 1.1 1019.9 0.0000 0.0000
23:39 -3.3 -5.8 81 334 0.3 1.1 1019.8 0.0000 0.0000
23:49 -3.4 -5.7 82 338 0.8 1.4 1019.6 0.0000 0.0000
23:58 -3.4 -5.7 82 337 0.3 1.4 1019.5 0.0000 0.0000

DAY STATISTIC

2019-02-18
TEMPERATURE
AVERAGE
2.0
HIGH
14.9
14:44
LOW
-5.4
06:51
PRESSURE
AVERAGE
1022.8
HIGH
1025.8
00:03
LOW
1019.5
23:58
DEWPOINT
AVERAGE
-3.1
HIGH
2.5
10:52
LOW
-6.5
05:05
HUMIDITY
AVERAGE
72
HIGH
97
09:22
LOW
40
15:14
WIND SPEED
AVERAGE
0.4
HIGH
0.8
00:03
WIND GUST
AVERAGE
1.2
HIGH
2.8
11:22
WIND DIRECTION
PREVAILING
NW
44.4%
N
28.9
NE
0.0
E
1.4
SE
7.0
S
4.9
SW
4.9
W
7.0
NW
44.4
PRECIPITATION
RAIN HOUR
0.0
RAIN DAY
0.0
TEMPERATURE (°C)
LOW
-5.4
HIGH
14.9
AVERAGE
2.0
PRESSURE (hpa)
LOW
1019.5
HIGH
1025.8
AVERAGE
1022.8
DEVICE